الصفحة الرئيسية
METAR-TAF:

METAR-TAF

مطار :

جزيرة كريسماس, أستراليا

دائرة عرض: 10-26S, خط طول: 105-41E, ارتفاع: 279 متر

مراقبة الطقس الحالي

تاريخ ووقت الإصدار 8 دقيقة قبل الساعة 23:30UTC
ريح 13 عقدة من الشرق/الجنوب الشرقي
درجة الحرارة 26°درجة مئوية
الرطوبة 84%
ضغط 1014 hPa
الرؤية 10 كم أو أكثر
غيوم مفككة على ارتفاع 1200 قدم
غيوم مفككة على ارتفاع 1800 قدم
ملبد بالغيوم على ارتفاع 2300 قدم

METAR: YPXM 032330Z AUTO 12013KT 9999 // BKN012 BKN018 OVC023 26/23 Q1014

زمن: 06:38 (23:38 UTC)

توقعات

تاريخ ووقت الإصدار 6ساعات و 33 دقيقة قبل الساعة 17:05UTC
التوقعات صالحة من03 الساعة 18 UTC إلى 04 الساعة 18 UTC
ريح 12 عقدة من الشرق/الجنوب الشرقي
الرؤية 10 كم أو أكثر
غيوم مفككة على ارتفاع 600 قدم
زخات من الأمطار الخفيفة
من 04 الساعة 0200 UTC
ريح 14 عقدة من الشرق
الرؤية 10 كم أو أكثر
غيوم مفككة على ارتفاع 1200 قدم
زخات من الأمطار الخفيفة

TAF: YPXM 031705Z 0318/0418 11012KT 9999 -SHRA BKN006 FM040200 10014KT 9999 -SHRA BKN012

أرصاد الطقس والتوقعات من أكثر من 4000 مطار (تقارير الطقس للمطار METAR والتنبؤ بالطقس بالمطارTAF).

المحطات المتاحة هي النقط الصفراء والحمراء على الخريطة.

حرك المؤشر فوق النقطة لمعرفة اسم المحطة.

ثم انقر لمعرفة أرصاد وتوقعات الطقس.

لتغيير الخارطة: اضغط على الأزرار الخضراء مع رمز الصليب الأسود للتكبير. على الزر الأخضر مع شرطة للتصغير، أو على الأسهم الخضراء للخرائط المجاورة.


METAR-TAF: